Sunray, Texas
Current Conditions -  °F | °C
As of 3:15 PM on Friday 24 Oct 2014 (Local Time) from KDUX Reporting Station
Clear Clear  
Wind Chill: 86°   Ceiling: Unl
Heat Index: 86°   Visibility: 10mi
Dew Point: 37°   Wind: 9mph
Humidity: 17%   Direction: 220°SW
Pressure: 30.11"   Gusts: NA
Location:  36.02°N, 101.82°W
Report Text: KDUX 242015Z AUTO 22008KT 10SM CLR 30/03 A3011 RMK AO2 T03010026
Loading
Personal Weather Stations






























Interactive Weather Map New forecast layout! Learn more

10-Day Weather Forecast

Advertisements
Track Severe Weather on mobile